Terminal Aerodrome Forecast
Issued by NWS Albany, NY

Home | Current Version | Previous Version | Text Only | Print | Product List | Glossary On
Versions: 1 2 3 4 5 6 7 8 9 10 11 12 13 14 15 16 17 18 19 20 21 22 23 24 25 26 27 28 29 30
000
FTUS41 KALY 240528
TAFPOU
TAF
KPOU 240528Z 2406/2506 02012KT 4SM -RAPL BR OVC020
     FM241300 35010KT 5SM -RA BR OVC015
     FM241900 34008KT 3SM -RA BR OVC010
     FM250000 33011KT 2SM -RASN BR OVC008=

USA.gov is the U.S. government's official web portal to all federal, state and local government web resources and services.